sensor_id;sensor_type;location;lat;lon;timestamp;temperature;humidity
17956;DHT22;27666;51.498;11.966;2023-03-08T00:02:14;2.30;99.90
17956;DHT22;27666;51.498;11.966;2023-03-08T00:05:00;2.30;99.90
17956;DHT22;27666;51.498;11.966;2023-03-08T00:07:47;2.30;99.90
17956;DHT22;27666;51.498;11.966;2023-03-08T00:10:34;2.30;99.90
17956;DHT22;27666;51.498;11.966;2023-03-08T00:13:20;2.30;99.90
17956;DHT22;27666;51.498;11.966;2023-03-08T00:16:09;2.30;99.90
17956;DHT22;27666;51.498;11.966;2023-03-08T00:18:57;2.30;99.90
17956;DHT22;27666;51.498;11.966;2023-03-08T00:21:44;2.30;99.90
17956;DHT22;27666;51.498;11.966;2023-03-08T00:24:30;2.40;99.90
17956;DHT22;27666;51.498;11.966;2023-03-08T00:27:17;2.30;99.90
17956;DHT22;27666;51.498;11.966;2023-03-08T00:30:04;2.40;99.90
17956;DHT22;27666;51.498;11.966;2023-03-08T00:32:51;2.40;99.90
17956;DHT22;27666;51.498;11.966;2023-03-08T00:35:39;2.40;99.90
17956;DHT22;27666;51.498;11.966;2023-03-08T00:38:26;2.40;99.90
17956;DHT22;27666;51.498;11.966;2023-03-08T00:41:13;2.40;99.90
17956;DHT22;27666;51.498;11.966;2023-03-08T00:44:00;2.40;99.90
17956;DHT22;27666;51.498;11.966;2023-03-08T00:46:46;2.40;99.90
17956;DHT22;27666;51.498;11.966;2023-03-08T00:49:33;2.40;99.90
17956;DHT22;27666;51.498;11.966;2023-03-08T00:52:21;2.40;99.90
17956;DHT22;27666;51.498;11.966;2023-03-08T00:55:08;2.40;99.90
17956;DHT22;27666;51.498;11.966;2023-03-08T00:57:55;2.40;99.90
17956;DHT22;27666;51.498;11.966;2023-03-08T01:00:41;2.40;99.90
17956;DHT22;27666;51.498;11.966;2023-03-08T01:03:28;2.40;99.90
17956;DHT22;27666;51.498;11.966;2023-03-08T01:06:15;2.30;99.90
17956;DHT22;27666;51.498;11.966;2023-03-08T01:09:03;2.30;99.90
17956;DHT22;27666;51.498;11.966;2023-03-08T01:11:50;2.30;99.90
17956;DHT22;27666;51.498;11.966;2023-03-08T01:14:36;2.30;99.90
17956;DHT22;27666;51.498;11.966;2023-03-08T01:17:23;2.30;99.90
17956;DHT22;27666;51.498;11.966;2023-03-08T01:20:11;2.30;99.90
17956;DHT22;27666;51.498;11.966;2023-03-08T01:22:57;2.30;99.90
17956;DHT22;27666;51.498;11.966;2023-03-08T01:25:45;2.30;99.90
17956;DHT22;27666;51.498;11.966;2023-03-08T01:28:33;2.30;99.90
17956;DHT22;27666;51.498;11.966;2023-03-08T01:31:22;2.30;99.90
17956;DHT22;27666;51.498;11.966;2023-03-08T01:34:09;2.30;99.90
17956;DHT22;27666;51.498;11.966;2023-03-08T01:36:56;2.30;99.90
17956;DHT22;27666;51.498;11.966;2023-03-08T01:39:42;2.20;99.90
17956;DHT22;27666;51.498;11.966;2023-03-08T01:42:31;2.20;99.90
17956;DHT22;27666;51.498;11.966;2023-03-08T01:48:46;2.20;99.90
17956;DHT22;27666;51.498;11.966;2023-03-08T01:51:38;2.10;99.90
17956;DHT22;27666;51.498;11.966;2023-03-08T01:54:29;2.10;99.90
17956;DHT22;27666;51.498;11.966;2023-03-08T01:57:19;2.10;99.90
17956;DHT22;27666;51.498;11.966;2023-03-08T02:00:12;2.20;99.90
17956;DHT22;27666;51.498;11.966;2023-03-08T02:03:01;2.10;99.90
17956;DHT22;27666;51.498;11.966;2023-03-08T02:05:48;2.10;99.90
17956;DHT22;27666;51.498;11.966;2023-03-08T02:08:35;2.20;99.90
17956;DHT22;27666;51.498;11.966;2023-03-08T02:11:23;2.10;99.90
17956;DHT22;27666;51.498;11.966;2023-03-08T02:14:10;2.10;99.90
17956;DHT22;27666;51.498;11.966;2023-03-08T02:16:58;2.00;99.90
17956;DHT22;27666;51.498;11.966;2023-03-08T02:19:50;2.00;99.90
17956;DHT22;27666;51.498;11.966;2023-03-08T02:22:40;2.00;99.90
17956;DHT22;27666;51.498;11.966;2023-03-08T02:25:27;2.00;99.90
17956;DHT22;27666;51.498;11.966;2023-03-08T02:28:14;2.10;99.90
17956;DHT22;27666;51.498;11.966;2023-03-08T02:31:01;2.20;99.90
17956;DHT22;27666;51.498;11.966;2023-03-08T02:33:47;2.20;99.90
17956;DHT22;27666;51.498;11.966;2023-03-08T02:36:34;2.20;99.90
17956;DHT22;27666;51.498;11.966;2023-03-08T02:39:22;2.20;99.90
17956;DHT22;27666;51.498;11.966;2023-03-08T02:42:08;2.10;99.90
17956;DHT22;27666;51.498;11.966;2023-03-08T02:44:55;2.10;99.90
17956;DHT22;27666;51.498;11.966;2023-03-08T02:47:41;2.00;99.90
17956;DHT22;27666;51.498;11.966;2023-03-08T02:50:28;2.00;99.90
17956;DHT22;27666;51.498;11.966;2023-03-08T02:53:16;2.00;99.90
17956;DHT22;27666;51.498;11.966;2023-03-08T02:56:04;2.00;99.90
17956;DHT22;27666;51.498;11.966;2023-03-08T02:58:51;2.00;99.90
17956;DHT22;27666;51.498;11.966;2023-03-08T03:01:37;1.90;99.90
17956;DHT22;27666;51.498;11.966;2023-03-08T03:04:24;1.90;99.90
17956;DHT22;27666;51.498;11.966;2023-03-08T03:07:10;1.90;99.90
17956;DHT22;27666;51.498;11.966;2023-03-08T03:09:56;2.00;99.90
17956;DHT22;27666;51.498;11.966;2023-03-08T03:12:44;2.00;99.90
17956;DHT22;27666;51.498;11.966;2023-03-08T03:15:31;2.00;99.90
17956;DHT22;27666;51.498;11.966;2023-03-08T03:18:17;2.00;99.90
17956;DHT22;27666;51.498;11.966;2023-03-08T03:21:06;2.10;99.90
17956;DHT22;27666;51.498;11.966;2023-03-08T03:23:53;2.10;99.90
17956;DHT22;27666;51.498;11.966;2023-03-08T03:26:40;2.10;99.90
17956;DHT22;27666;51.498;11.966;2023-03-08T03:29:28;2.10;99.90
17956;DHT22;27666;51.498;11.966;2023-03-08T03:32:15;2.10;99.90
17956;DHT22;27666;51.498;11.966;2023-03-08T03:35:02;2.10;99.90
17956;DHT22;27666;51.498;11.966;2023-03-08T03:37:48;2.10;99.90
17956;DHT22;27666;51.498;11.966;2023-03-08T03:40:34;2.20;99.90
17956;DHT22;27666;51.498;11.966;2023-03-08T03:43:21;2.20;99.90
17956;DHT22;27666;51.498;11.966;2023-03-08T03:46:11;2.20;99.90
17956;DHT22;27666;51.498;11.966;2023-03-08T03:48:59;2.20;99.90
17956;DHT22;27666;51.498;11.966;2023-03-08T03:51:45;2.20;99.90
17956;DHT22;27666;51.498;11.966;2023-03-08T03:54:32;2.20;99.90
17956;DHT22;27666;51.498;11.966;2023-03-08T03:57:19;2.20;99.90
17956;DHT22;27666;51.498;11.966;2023-03-08T04:00:06;2.10;99.90
17956;DHT22;27666;51.498;11.966;2023-03-08T04:02:55;2.00;99.90
17956;DHT22;27666;51.498;11.966;2023-03-08T04:05:42;1.90;99.90
17956;DHT22;27666;51.498;11.966;2023-03-08T04:08:29;1.80;99.90
17956;DHT22;27666;51.498;11.966;2023-03-08T04:11:17;1.70;99.90
17956;DHT22;27666;51.498;11.966;2023-03-08T04:14:05;1.70;99.90
17956;DHT22;27666;51.498;11.966;2023-03-08T04:16:51;1.60;99.90
17956;DHT22;27666;51.498;11.966;2023-03-08T04:19:39;1.70;99.90
17956;DHT22;27666;51.498;11.966;2023-03-08T04:22:26;1.70;99.90
17956;DHT22;27666;51.498;11.966;2023-03-08T04:25:12;1.70;99.90
17956;DHT22;27666;51.498;11.966;2023-03-08T04:27:59;1.60;99.90
17956;DHT22;27666;51.498;11.966;2023-03-08T04:30:45;1.60;99.90
17956;DHT22;27666;51.498;11.966;2023-03-08T04:33:32;1.60;99.90
17956;DHT22;27666;51.498;11.966;2023-03-08T04:36:20;1.60;99.90
17956;DHT22;27666;51.498;11.966;2023-03-08T04:39:07;1.70;99.90
17956;DHT22;27666;51.498;11.966;2023-03-08T04:41:54;1.60;99.90
17956;DHT22;27666;51.498;11.966;2023-03-08T04:44:40;1.50;99.90
17956;DHT22;27666;51.498;11.966;2023-03-08T04:47:26;1.50;99.90
17956;DHT22;27666;51.498;11.966;2023-03-08T04:50:13;1.50;99.90
17956;DHT22;27666;51.498;11.966;2023-03-08T04:53:01;1.60;99.90
17956;DHT22;27666;51.498;11.966;2023-03-08T04:55:49;1.60;99.90
17956;DHT22;27666;51.498;11.966;2023-03-08T04:58:36;1.60;99.90
17956;DHT22;27666;51.498;11.966;2023-03-08T05:01:23;1.70;99.90
17956;DHT22;27666;51.498;11.966;2023-03-08T05:04:10;1.70;99.90
17956;DHT22;27666;51.498;11.966;2023-03-08T05:06:56;1.70;99.90
17956;DHT22;27666;51.498;11.966;2023-03-08T05:09:44;1.70;99.90
17956;DHT22;27666;51.498;11.966;2023-03-08T05:12:31;1.70;99.90
17956;DHT22;27666;51.498;11.966;2023-03-08T05:15:17;1.70;99.90
17956;DHT22;27666;51.498;11.966;2023-03-08T05:18:04;1.60;99.90
17956;DHT22;27666;51.498;11.966;2023-03-08T05:20:55;1.60;99.90
17956;DHT22;27666;51.498;11.966;2023-03-08T05:23:41;1.70;99.90
17956;DHT22;27666;51.498;11.966;2023-03-08T05:26:30;1.70;99.90
17956;DHT22;27666;51.498;11.966;2023-03-08T05:29:17;1.70;99.90
17956;DHT22;27666;51.498;11.966;2023-03-08T05:32:04;1.80;99.90
17956;DHT22;27666;51.498;11.966;2023-03-08T05:34:51;1.90;99.90
17956;DHT22;27666;51.498;11.966;2023-03-08T05:37:37;1.90;99.90
17956;DHT22;27666;51.498;11.966;2023-03-08T05:40:23;1.90;99.90
17956;DHT22;27666;51.498;11.966;2023-03-08T05:43:11;1.90;99.90
17956;DHT22;27666;51.498;11.966;2023-03-08T05:45:59;1.90;99.90
17956;DHT22;27666;51.498;11.966;2023-03-08T05:48:47;2.00;99.90
17956;DHT22;27666;51.498;11.966;2023-03-08T05:51:33;2.10;99.90
17956;DHT22;27666;51.498;11.966;2023-03-08T05:54:20;2.10;99.90
17956;DHT22;27666;51.498;11.966;2023-03-08T05:57:06;2.10;99.90
17956;DHT22;27666;51.498;11.966;2023-03-08T05:59:54;2.00;99.90
17956;DHT22;27666;51.498;11.966;2023-03-08T06:02:41;2.10;99.90
17956;DHT22;27666;51.498;11.966;2023-03-08T06:05:28;2.20;99.90
17956;DHT22;27666;51.498;11.966;2023-03-08T06:08:14;2.30;99.90
17956;DHT22;27666;51.498;11.966;2023-03-08T06:11:01;2.30;99.90
17956;DHT22;27666;51.498;11.966;2023-03-08T06:13:47;2.30;99.90
17956;DHT22;27666;51.498;11.966;2023-03-08T06:16:35;2.30;99.90
17956;DHT22;27666;51.498;11.966;2023-03-08T06:19:22;2.30;99.90
17956;DHT22;27666;51.498;11.966;2023-03-08T06:22:08;2.40;99.90
17956;DHT22;27666;51.498;11.966;2023-03-08T06:24:55;2.50;99.90
17956;DHT22;27666;51.498;11.966;2023-03-08T06:27:41;2.50;99.90
17956;DHT22;27666;51.498;11.966;2023-03-08T06:30:27;2.50;99.90
17956;DHT22;27666;51.498;11.966;2023-03-08T06:33:15;2.60;99.90
17956;DHT22;27666;51.498;11.966;2023-03-08T06:36:04;2.60;99.90
17956;DHT22;27666;51.498;11.966;2023-03-08T06:38:51;2.60;99.90
17956;DHT22;27666;51.498;11.966;2023-03-08T06:41:38;2.70;99.90
17956;DHT22;27666;51.498;11.966;2023-03-08T06:44:24;2.70;99.90
17956;DHT22;27666;51.498;11.966;2023-03-08T06:47:11;2.70;99.90
17956;DHT22;27666;51.498;11.966;2023-03-08T06:49:59;2.80;99.90
17956;DHT22;27666;51.498;11.966;2023-03-08T06:52:45;2.80;99.90
17956;DHT22;27666;51.498;11.966;2023-03-08T06:55:33;2.90;99.90
17956;DHT22;27666;51.498;11.966;2023-03-08T06:58:20;3.00;99.90
17956;DHT22;27666;51.498;11.966;2023-03-08T07:01:07;3.00;99.90
17956;DHT22;27666;51.498;11.966;2023-03-08T07:03:54;3.10;99.90
17956;DHT22;27666;51.498;11.966;2023-03-08T07:06:42;3.30;99.90
17956;DHT22;27666;51.498;11.966;2023-03-08T07:09:28;3.30;99.90
17956;DHT22;27666;51.498;11.966;2023-03-08T07:12:15;3.40;99.90
17956;DHT22;27666;51.498;11.966;2023-03-08T07:15:01;3.50;99.90
17956;DHT22;27666;51.498;11.966;2023-03-08T07:17:49;3.60;99.90
17956;DHT22;27666;51.498;11.966;2023-03-08T07:20:36;3.60;99.90
17956;DHT22;27666;51.498;11.966;2023-03-08T07:23:24;3.70;99.90
17956;DHT22;27666;51.498;11.966;2023-03-08T07:26:11;3.70;99.90
17956;DHT22;27666;51.498;11.966;2023-03-08T07:28:58;3.70;99.90
17956;DHT22;27666;51.498;11.966;2023-03-08T07:31:44;3.70;99.90
17956;DHT22;27666;51.498;11.966;2023-03-08T07:34:30;3.70;99.90
17956;DHT22;27666;51.498;11.966;2023-03-08T07:37:17;3.70;99.90
17956;DHT22;27666;51.498;11.966;2023-03-08T07:40:06;3.80;99.90
17956;DHT22;27666;51.498;11.966;2023-03-08T07:42:54;3.70;99.90
17956;DHT22;27666;51.498;11.966;2023-03-08T07:45:41;3.80;99.90
17956;DHT22;27666;51.498;11.966;2023-03-08T07:48:27;4.00;99.90
17956;DHT22;27666;51.498;11.966;2023-03-08T07:51:14;4.10;99.90
17956;DHT22;27666;51.498;11.966;2023-03-08T07:54:01;4.10;99.90
17956;DHT22;27666;51.498;11.966;2023-03-08T07:56:50;4.10;99.90
17956;DHT22;27666;51.498;11.966;2023-03-08T07:59:37;4.20;99.90
17956;DHT22;27666;51.498;11.966;2023-03-08T08:02:23;4.40;99.90
17956;DHT22;27666;51.498;11.966;2023-03-08T08:05:10;4.50;99.90
17956;DHT22;27666;51.498;11.966;2023-03-08T08:07:56;4.60;99.90
17956;DHT22;27666;51.498;11.966;2023-03-08T08:10:43;4.80;99.90
17956;DHT22;27666;51.498;11.966;2023-03-08T08:13:31;4.80;99.90
17956;DHT22;27666;51.498;11.966;2023-03-08T08:16:17;4.70;99.90
17956;DHT22;27666;51.498;11.966;2023-03-08T08:19:04;4.70;99.90
17956;DHT22;27666;51.498;11.966;2023-03-08T08:21:50;4.70;99.90
17956;DHT22;27666;51.498;11.966;2023-03-08T08:24:37;4.70;99.90
17956;DHT22;27666;51.498;11.966;2023-03-08T08:27:23;4.80;99.90
17956;DHT22;27666;51.498;11.966;2023-03-08T08:30:13;4.80;99.90
17956;DHT22;27666;51.498;11.966;2023-03-08T08:32:59;4.90;99.90
17956;DHT22;27666;51.498;11.966;2023-03-08T08:35:48;5.00;99.90
17956;DHT22;27666;51.498;11.966;2023-03-08T08:38:35;5.00;99.90
17956;DHT22;27666;51.498;11.966;2023-03-08T08:41:23;5.10;99.90
17956;DHT22;27666;51.498;11.966;2023-03-08T08:44:09;5.10;99.90
17956;DHT22;27666;51.498;11.966;2023-03-08T08:46:57;5.10;99.90
17956;DHT22;27666;51.498;11.966;2023-03-08T08:49:44;4.90;99.90
17956;DHT22;27666;51.498;11.966;2023-03-08T08:52:31;5.00;99.90
17956;DHT22;27666;51.498;11.966;2023-03-08T08:55:17;5.00;99.90
17956;DHT22;27666;51.498;11.966;2023-03-08T08:58:04;5.00;99.90
17956;DHT22;27666;51.498;11.966;2023-03-08T09:00:51;5.00;99.90
17956;DHT22;27666;51.498;11.966;2023-03-08T09:03:39;5.10;99.90
17956;DHT22;27666;51.498;11.966;2023-03-08T09:06:27;5.20;99.90
17956;DHT22;27666;51.498;11.966;2023-03-08T09:09:13;5.30;99.90
17956;DHT22;27666;51.498;11.966;2023-03-08T09:12:01;5.40;99.90
17956;DHT22;27666;51.498;11.966;2023-03-08T09:14:47;5.40;99.90
17956;DHT22;27666;51.498;11.966;2023-03-08T09:17:34;5.40;99.90
17956;DHT22;27666;51.498;11.966;2023-03-08T09:20:22;5.50;99.90
17956;DHT22;27666;51.498;11.966;2023-03-08T09:23:09;5.20;99.90
17956;DHT22;27666;51.498;11.966;2023-03-08T09:25:57;5.10;99.90
17956;DHT22;27666;51.498;11.966;2023-03-08T09:28:46;5.00;99.90
17956;DHT22;27666;51.498;11.966;2023-03-08T09:31:35;4.90;99.90
17956;DHT22;27666;51.498;11.966;2023-03-08T09:34:24;4.90;99.90
17956;DHT22;27666;51.498;11.966;2023-03-08T09:37:12;4.80;99.90
17956;DHT22;27666;51.498;11.966;2023-03-08T09:39:59;4.70;99.90
17956;DHT22;27666;51.498;11.966;2023-03-08T09:42:46;4.80;99.90
17956;DHT22;27666;51.498;11.966;2023-03-08T09:45:32;4.60;99.90
17956;DHT22;27666;51.498;11.966;2023-03-08T09:48:22;4.50;99.90
17956;DHT22;27666;51.498;11.966;2023-03-08T09:51:13;4.30;99.90
17956;DHT22;27666;51.498;11.966;2023-03-08T09:54:06;4.30;99.90
17956;DHT22;27666;51.498;11.966;2023-03-08T09:56:53;4.30;99.90
17956;DHT22;27666;51.498;11.966;2023-03-08T09:59:44;4.30;99.90
17956;DHT22;27666;51.498;11.966;2023-03-08T10:02:37;4.30;99.90
17956;DHT22;27666;51.498;11.966;2023-03-08T10:05:33;4.20;99.90
17956;DHT22;27666;51.498;11.966;2023-03-08T10:08:24;4.20;99.90
17956;DHT22;27666;51.498;11.966;2023-03-08T10:11:18;4.30;99.90
17956;DHT22;27666;51.498;11.966;2023-03-08T10:14:15;4.30;99.90
17956;DHT22;27666;51.498;11.966;2023-03-08T10:17:08;4.30;99.90
17956;DHT22;27666;51.498;11.966;2023-03-08T10:20:00;4.00;99.90
17956;DHT22;27666;51.498;11.966;2023-03-08T10:22:56;3.90;99.90
17956;DHT22;27666;51.498;11.966;2023-03-08T10:25:44;3.90;99.90
17956;DHT22;27666;51.498;11.966;2023-03-08T10:28:32;3.80;99.90
17956;DHT22;27666;51.498;11.966;2023-03-08T10:31:22;3.50;99.90
17956;DHT22;27666;51.498;11.966;2023-03-08T10:34:11;3.50;99.90
17956;DHT22;27666;51.498;11.966;2023-03-08T10:37:00;3.40;99.90
17956;DHT22;27666;51.498;11.966;2023-03-08T10:39:49;3.40;99.90
17956;DHT22;27666;51.498;11.966;2023-03-08T10:42:41;3.30;99.90
17956;DHT22;27666;51.498;11.966;2023-03-08T10:45:31;3.30;99.90
17956;DHT22;27666;51.498;11.966;2023-03-08T10:48:19;3.30;99.90
17956;DHT22;27666;51.498;11.966;2023-03-08T10:51:15;3.30;99.90
17956;DHT22;27666;51.498;11.966;2023-03-08T10:54:04;3.30;99.90
17956;DHT22;27666;51.498;11.966;2023-03-08T10:56:54;3.40;99.90
17956;DHT22;27666;51.498;11.966;2023-03-08T10:59:47;3.40;99.90
17956;DHT22;27666;51.498;11.966;2023-03-08T11:02:36;3.40;99.90
17956;DHT22;27666;51.498;11.966;2023-03-08T11:05:24;3.40;99.90
17956;DHT22;27666;51.498;11.966;2023-03-08T11:08:17;3.40;99.90
17956;DHT22;27666;51.498;11.966;2023-03-08T11:11:07;3.30;99.90
17956;DHT22;27666;51.498;11.966;2023-03-08T11:13:54;3.00;99.90
17956;DHT22;27666;51.498;11.966;2023-03-08T11:16:50;3.00;99.90
17956;DHT22;27666;51.498;11.966;2023-03-08T11:19:49;3.10;99.90
17956;DHT22;27666;51.498;11.966;2023-03-08T11:22:56;3.00;99.90
17956;DHT22;27666;51.498;11.966;2023-03-08T11:25:50;3.00;99.90
17956;DHT22;27666;51.498;11.966;2023-03-08T11:28:50;2.90;99.90
17956;DHT22;27666;51.498;11.966;2023-03-08T11:31:46;2.80;99.90
17956;DHT22;27666;51.498;11.966;2023-03-08T11:34:52;2.80;99.90
17956;DHT22;27666;51.498;11.966;2023-03-08T11:37:45;3.00;99.90
17956;DHT22;27666;51.498;11.966;2023-03-08T11:40:45;3.00;99.90
17956;DHT22;27666;51.498;11.966;2023-03-08T11:47:25;2.90;99.90
17956;DHT22;27666;51.498;11.966;2023-03-08T11:50:20;2.80;99.90
17956;DHT22;27666;51.498;11.966;2023-03-08T11:53:17;2.70;99.90
17956;DHT22;27666;51.498;11.966;2023-03-08T11:56:18;2.80;99.90
17956;DHT22;27666;51.498;11.966;2023-03-08T11:59:18;2.50;99.90
17956;DHT22;27666;51.498;11.966;2023-03-08T12:02:14;2.60;99.90
17956;DHT22;27666;51.498;11.966;2023-03-08T12:05:08;2.50;99.90
17956;DHT22;27666;51.498;11.966;2023-03-08T12:08:02;2.50;99.90
17956;DHT22;27666;51.498;11.966;2023-03-08T12:10:53;2.50;99.90
17956;DHT22;27666;51.498;11.966;2023-03-08T12:13:44;2.50;99.90
17956;DHT22;27666;51.498;11.966;2023-03-08T12:16:38;2.50;99.90
17956;DHT22;27666;51.498;11.966;2023-03-08T12:19:31;2.60;99.90
17956;DHT22;27666;51.498;11.966;2023-03-08T12:22:27;2.70;99.90
17956;DHT22;27666;51.498;11.966;2023-03-08T12:25:24;2.50;99.90
17956;DHT22;27666;51.498;11.966;2023-03-08T12:28:15;2.40;99.90
17956;DHT22;27666;51.498;11.966;2023-03-08T12:31:16;2.40;99.90
17956;DHT22;27666;51.498;11.966;2023-03-08T12:34:25;2.50;99.90
17956;DHT22;27666;51.498;11.966;2023-03-08T12:37:20;2.50;99.90
17956;DHT22;27666;51.498;11.966;2023-03-08T12:40:28;2.60;99.90
17956;DHT22;27666;51.498;11.966;2023-03-08T12:43:28;2.60;99.90
17956;DHT22;27666;51.498;11.966;2023-03-08T12:46:14;2.80;99.90
17956;DHT22;27666;51.498;11.966;2023-03-08T12:49:01;2.80;99.90
17956;DHT22;27666;51.498;11.966;2023-03-08T12:51:56;2.90;99.90
17956;DHT22;27666;51.498;11.966;2023-03-08T12:54:44;2.80;99.90
17956;DHT22;27666;51.498;11.966;2023-03-08T12:57:48;2.80;99.90
17956;DHT22;27666;51.498;11.966;2023-03-08T13:00:36;2.70;99.90
17956;DHT22;27666;51.498;11.966;2023-03-08T13:03:34;2.80;99.90
17956;DHT22;27666;51.498;11.966;2023-03-08T13:09:43;2.80;99.90
17956;DHT22;27666;51.498;11.966;2023-03-08T13:12:39;2.80;99.90
17956;DHT22;27666;51.498;11.966;2023-03-08T13:15:28;2.80;99.90
17956;DHT22;27666;51.498;11.966;2023-03-08T13:18:18;2.70;99.90
17956;DHT22;27666;51.498;11.966;2023-03-08T13:21:19;2.70;99.90
17956;DHT22;27666;51.498;11.966;2023-03-08T13:24:13;2.70;99.90
17956;DHT22;27666;51.498;11.966;2023-03-08T13:27:19;2.60;99.90
17956;DHT22;27666;51.498;11.966;2023-03-08T13:30:18;2.80;99.90
17956;DHT22;27666;51.498;11.966;2023-03-08T13:33:12;2.80;99.90
17956;DHT22;27666;51.498;11.966;2023-03-08T13:36:00;2.70;99.90
17956;DHT22;27666;51.498;11.966;2023-03-08T13:38:56;2.40;99.90
17956;DHT22;27666;51.498;11.966;2023-03-08T13:41:45;2.50;99.90
17956;DHT22;27666;51.498;11.966;2023-03-08T13:44:31;2.40;99.90
17956;DHT22;27666;51.498;11.966;2023-03-08T13:47:22;2.50;99.90
17956;DHT22;27666;51.498;11.966;2023-03-08T13:50:17;2.60;99.90
17956;DHT22;27666;51.498;11.966;2023-03-08T13:53:09;2.60;99.90
17956;DHT22;27666;51.498;11.966;2023-03-08T13:55:58;2.60;99.90
17956;DHT22;27666;51.498;11.966;2023-03-08T13:58:46;2.50;99.90
17956;DHT22;27666;51.498;11.966;2023-03-08T14:01:34;2.60;99.90
17956;DHT22;27666;51.498;11.966;2023-03-08T14:04:33;2.50;99.90
17956;DHT22;27666;51.498;11.966;2023-03-08T14:07:25;2.50;99.90
17956;DHT22;27666;51.498;11.966;2023-03-08T14:10:12;2.50;99.90
17956;DHT22;27666;51.498;11.966;2023-03-08T14:12:59;2.50;99.90
17956;DHT22;27666;51.498;11.966;2023-03-08T14:15:51;2.50;99.90
17956;DHT22;27666;51.498;11.966;2023-03-08T14:18:41;2.50;99.90
17956;DHT22;27666;51.498;11.966;2023-03-08T14:21:29;2.60;99.90
17956;DHT22;27666;51.498;11.966;2023-03-08T14:24:20;2.60;99.90
17956;DHT22;27666;51.498;11.966;2023-03-08T14:27:30;2.50;99.90
17956;DHT22;27666;51.498;11.966;2023-03-08T14:30:18;2.50;99.90
17956;DHT22;27666;51.498;11.966;2023-03-08T14:33:18;2.40;99.90
17956;DHT22;27666;51.498;11.966;2023-03-08T14:36:17;2.40;99.90
17956;DHT22;27666;51.498;11.966;2023-03-08T14:39:04;2.40;99.90
17956;DHT22;27666;51.498;11.966;2023-03-08T14:41:52;2.40;99.90
17956;DHT22;27666;51.498;11.966;2023-03-08T14:44:39;2.40;99.90
17956;DHT22;27666;51.498;11.966;2023-03-08T14:47:28;2.40;99.90
17956;DHT22;27666;51.498;11.966;2023-03-08T14:50:21;2.50;99.90
17956;DHT22;27666;51.498;11.966;2023-03-08T14:53:27;2.40;99.90
17956;DHT22;27666;51.498;11.966;2023-03-08T14:56:16;2.50;99.90
17956;DHT22;27666;51.498;11.966;2023-03-08T14:59:04;2.60;99.90
17956;DHT22;27666;51.498;11.966;2023-03-08T15:01:53;2.50;99.90
17956;DHT22;27666;51.498;11.966;2023-03-08T15:04:40;2.50;99.90
17956;DHT22;27666;51.498;11.966;2023-03-08T15:07:32;2.50;99.90
17956;DHT22;27666;51.498;11.966;2023-03-08T15:10:24;2.40;99.90
17956;DHT22;27666;51.498;11.966;2023-03-08T15:13:15;2.50;99.90
17956;DHT22;27666;51.498;11.966;2023-03-08T15:16:04;2.60;99.90
17956;DHT22;27666;51.498;11.966;2023-03-08T15:18:51;2.60;99.90
17956;DHT22;27666;51.498;11.966;2023-03-08T15:21:38;2.60;99.90
17956;DHT22;27666;51.498;11.966;2023-03-08T15:24:25;2.70;99.90
17956;DHT22;27666;51.498;11.966;2023-03-08T15:27:13;2.70;99.90
17956;DHT22;27666;51.498;11.966;2023-03-08T15:30:00;2.70;99.90
17956;DHT22;27666;51.498;11.966;2023-03-08T15:32:48;2.60;99.90
17956;DHT22;27666;51.498;11.966;2023-03-08T15:35:35;2.40;99.90
17956;DHT22;27666;51.498;11.966;2023-03-08T15:38:22;2.40;99.90
17956;DHT22;27666;51.498;11.966;2023-03-08T15:41:10;2.30;99.90
17956;DHT22;27666;51.498;11.966;2023-03-08T15:43:56;2.20;99.90
17956;DHT22;27666;51.498;11.966;2023-03-08T15:46:43;2.20;99.90
17956;DHT22;27666;51.498;11.966;2023-03-08T15:49:30;2.30;99.90
17956;DHT22;27666;51.498;11.966;2023-03-08T15:52:19;2.40;99.90
17956;DHT22;27666;51.498;11.966;2023-03-08T15:55:10;2.40;99.90
17956;DHT22;27666;51.498;11.966;2023-03-08T15:57:57;2.50;99.90
17956;DHT22;27666;51.498;11.966;2023-03-08T16:00:43;2.60;99.90
17956;DHT22;27666;51.498;11.966;2023-03-08T16:03:30;2.50;99.90
17956;DHT22;27666;51.498;11.966;2023-03-08T16:06:18;2.40;99.90
17956;DHT22;27666;51.498;11.966;2023-03-08T16:09:05;2.40;99.90
17956;DHT22;27666;51.498;11.966;2023-03-08T16:11:51;2.40;99.90
17956;DHT22;27666;51.498;11.966;2023-03-08T16:14:38;2.30;99.90
17956;DHT22;27666;51.498;11.966;2023-03-08T16:17:28;2.40;99.90
17956;DHT22;27666;51.498;11.966;2023-03-08T16:20:14;2.30;99.90
17956;DHT22;27666;51.498;11.966;2023-03-08T16:23:02;2.20;99.90
17956;DHT22;27666;51.498;11.966;2023-03-08T16:25:56;2.20;99.90
17956;DHT22;27666;51.498;11.966;2023-03-08T16:28:59;2.20;99.90
17956;DHT22;27666;51.498;11.966;2023-03-08T16:31:46;2.20;99.90
17956;DHT22;27666;51.498;11.966;2023-03-08T16:34:32;2.30;99.90
17956;DHT22;27666;51.498;11.966;2023-03-08T16:37:19;2.30;99.90
17956;DHT22;27666;51.498;11.966;2023-03-08T16:40:09;2.20;99.90
17956;DHT22;27666;51.498;11.966;2023-03-08T16:42:56;2.20;99.90
17956;DHT22;27666;51.498;11.966;2023-03-08T16:45:52;2.20;99.90
17956;DHT22;27666;51.498;11.966;2023-03-08T16:48:40;2.20;99.90
17956;DHT22;27666;51.498;11.966;2023-03-08T16:51:28;2.30;99.90
17956;DHT22;27666;51.498;11.966;2023-03-08T16:54:15;2.20;99.90
17956;DHT22;27666;51.498;11.966;2023-03-08T16:57:08;2.20;99.90
17956;DHT22;27666;51.498;11.966;2023-03-08T17:00:06;2.10;99.90
17956;DHT22;27666;51.498;11.966;2023-03-08T17:02:54;2.10;99.90
17956;DHT22;27666;51.498;11.966;2023-03-08T17:05:43;2.10;99.90
17956;DHT22;27666;51.498;11.966;2023-03-08T17:08:30;2.20;99.90
17956;DHT22;27666;51.498;11.966;2023-03-08T17:11:19;2.10;99.90
17956;DHT22;27666;51.498;11.966;2023-03-08T17:14:09;2.20;99.90
17956;DHT22;27666;51.498;11.966;2023-03-08T17:16:56;2.30;99.90
17956;DHT22;27666;51.498;11.966;2023-03-08T17:19:45;2.30;99.90
17956;DHT22;27666;51.498;11.966;2023-03-08T17:22:34;2.30;99.90
17956;DHT22;27666;51.498;11.966;2023-03-08T17:25:22;2.30;99.90
17956;DHT22;27666;51.498;11.966;2023-03-08T17:28:09;2.30;99.90
17956;DHT22;27666;51.498;11.966;2023-03-08T17:30:58;2.40;99.90
17956;DHT22;27666;51.498;11.966;2023-03-08T17:33:47;2.30;99.90
17956;DHT22;27666;51.498;11.966;2023-03-08T17:36:38;2.30;99.90
17956;DHT22;27666;51.498;11.966;2023-03-08T17:39:27;2.30;99.90
17956;DHT22;27666;51.498;11.966;2023-03-08T17:42:13;2.30;99.90
17956;DHT22;27666;51.498;11.966;2023-03-08T17:45:00;2.20;99.90
17956;DHT22;27666;51.498;11.966;2023-03-08T17:47:52;2.00;99.90
17956;DHT22;27666;51.498;11.966;2023-03-08T17:50:45;2.00;99.90
17956;DHT22;27666;51.498;11.966;2023-03-08T17:53:33;2.00;99.90
17956;DHT22;27666;51.498;11.966;2023-03-08T17:56:21;1.90;99.90
17956;DHT22;27666;51.498;11.966;2023-03-08T17:59:11;2.00;99.90